Airfield :
LOGIN :

Register | Disclaimer

   EN    FR    IT 

 










Legend :    VFR   Marginal VFR   IFR   Intensive IFR   Very Intensive IFR
Visi :
Ceiling :
>= 8 km
>= 3000ft
5 to 8 km
1000 to 3000 ft
1500m to 5 km
500 to 1000 ft
800 to 1500m
200 to 500 ft
< 800m
< 200 ft
Symbols :   Thunderstorms  Fog  Heavy snow  Heavy precipitations  Wind > 20 kt
SIGMETs :     Misc.  Thunderstorms  Icing  Turbulence  Mountain Waves  Volcanic Ashes






- Airport Elevation : 1267 ft
- IATA code : CUF


LIMZ - Cuneo Levaldigi

CURRENT METAR :
  • 161150Z VRB01KT 7000 BKN050 09/04 Q1021

EXPIRED METARs :
  • 161050Z VRB02KT 7000 BKN050 08/04 Q1021
  • 160950Z VRB02KT 7000 BKN050 07/07 Q1021

TAF TAF LIMZ
Valid from the 16 at 12:00 until the 17 at 12:00 UTC


161100Z 1612/1712 VRB05KT 6000 BKN025 BKN050
BECMG 1619/1621 3000 DZ BKN012 BKN040



MET'MAP, your aeronautical weather chart ! - Copyright ORBIFLY December 2007 - Disclaimer

ORBIFLY MET'MAP TEAM :

Programming & Development : Alexandra Zaïnal
Concept & original design : Baudouin d'Aumeries
Assistance for programming : Marc-Olivier Méhu
Technical & hardware support : Manuel Goepfert

Contact : metmap@orbifly.com




SOURCES & CREDITS :

   NOAA